createdAt,value
2018-02-24T00:00:26.646Z,-1.57
2018-02-24T00:02:52.635Z,-1.29
2018-02-24T00:05:18.595Z,-1.13
2018-02-24T00:07:44.523Z,-0.94
2018-02-24T00:10:10.470Z,-1.27
2018-02-24T00:12:36.414Z,-1.43
2018-02-24T00:15:02.375Z,-1.15
2018-02-24T00:17:28.308Z,-1.02
2018-02-24T00:19:54.267Z,-1.21
2018-02-24T00:22:20.195Z,-1.03
2018-02-24T00:24:46.153Z,-1.02
2018-02-24T00:27:12.099Z,-1.02
2018-02-24T00:29:38.063Z,-0.84
2018-02-24T00:32:04.004Z,-0.63
2018-02-24T00:34:29.997Z,-1.19
2018-02-24T00:36:55.929Z,-1.35
2018-02-24T00:39:21.881Z,-1.84
2018-02-24T00:41:47.834Z,-1.60
2018-02-24T00:44:13.905Z,-1.28
2018-02-24T00:46:40.159Z,-1.91
2018-02-24T00:49:06.179Z,-1.63
2018-02-24T00:51:32.143Z,-1.47
2018-02-24T00:53:58.123Z,-1.69
2018-02-24T00:56:24.098Z,-1.52
2018-02-24T00:58:50.037Z,-1.75
2018-02-24T01:01:16.022Z,-2.28
2018-02-24T01:03:41.965Z,-1.82
2018-02-24T01:06:07.937Z,-1.44
2018-02-24T01:08:33.857Z,-1.40
2018-02-24T01:10:59.803Z,-1.82
2018-02-24T01:13:25.749Z,-1.47
2018-02-24T01:15:51.720Z,-1.08
2018-02-24T01:18:17.659Z,-1.13
2018-02-24T01:20:43.586Z,-1.11
2018-02-24T01:23:09.523Z,-1.29
2018-02-24T01:25:35.465Z,-2.01
2018-02-24T01:28:01.416Z,-2.14
2018-02-24T01:30:27.366Z,-2.16
2018-02-24T01:32:53.326Z,-2.44
2018-02-24T01:35:19.273Z,-2.11
2018-02-24T01:37:45.231Z,-2.76
2018-02-24T01:40:11.172Z,-2.11
2018-02-24T01:42:37.177Z,-1.66
2018-02-24T01:45:03.194Z,-1.33
2018-02-24T01:47:29.131Z,-1.44
2018-02-24T01:49:55.063Z,-1.75
2018-02-24T01:52:21.006Z,-1.79
2018-02-24T01:54:46.944Z,-1.69
2018-02-24T01:57:12.885Z,-1.13
2018-02-24T01:59:38.805Z,-1.89
2018-02-24T02:02:04.750Z,-1.82
2018-02-24T02:04:30.681Z,-2.30
2018-02-24T02:06:56.614Z,-2.75
2018-02-24T02:09:22.568Z,-2.82
2018-02-24T02:11:48.500Z,-2.67
2018-02-24T02:14:14.478Z,-2.68
2018-02-24T02:16:40.422Z,-2.58
2018-02-24T02:19:06.357Z,-2.31
2018-02-24T02:21:32.299Z,-2.52
2018-02-24T02:23:58.303Z,-2.33
2018-02-24T02:26:24.253Z,-1.79
2018-02-24T02:28:50.202Z,-1.60
2018-02-24T02:31:16.151Z,-1.53
2018-02-24T02:33:42.150Z,-1.49
2018-02-24T02:36:08.089Z,-1.74
2018-02-24T02:38:34.025Z,-2.01
2018-02-24T02:40:59.987Z,-1.75
2018-02-24T02:43:25.934Z,-1.65
2018-02-24T02:45:51.881Z,-1.73
2018-02-24T02:48:17.826Z,-1.81
2018-02-24T02:50:43.774Z,-2.54
2018-02-24T02:53:09.701Z,-1.99
2018-02-24T02:55:35.662Z,-2.14
2018-02-24T02:58:01.606Z,-2.75
2018-02-24T03:00:27.560Z,-2.52
2018-02-24T03:02:53.490Z,-2.31
2018-02-24T03:05:19.434Z,-2.90
2018-02-24T03:07:45.373Z,-3.23
2018-02-24T03:10:11.322Z,-3.42
2018-02-24T03:12:37.259Z,-2.97
2018-02-24T03:15:03.197Z,-3.21
2018-02-24T03:17:29.158Z,-3.34
2018-02-24T03:19:55.110Z,-3.22
2018-02-24T03:22:21.062Z,-3.28
2018-02-24T03:24:47.001Z,-3.14
2018-02-24T03:27:12.946Z,-2.93
2018-02-24T03:29:38.891Z,-2.63
2018-02-24T03:32:04.834Z,-2.71
2018-02-24T03:34:30.762Z,-2.92
2018-02-24T03:36:56.699Z,-2.95
2018-02-24T03:39:22.680Z,-3.37
2018-02-24T03:41:48.614Z,-3.45
2018-02-24T03:44:14.551Z,-3.12
2018-02-24T03:46:40.494Z,-3.64
2018-02-24T03:49:06.426Z,-3.35
2018-02-24T03:51:32.360Z,-3.66
2018-02-24T03:53:58.313Z,-3.53
2018-02-24T03:56:24.258Z,-3.77
2018-02-24T03:58:50.202Z,-3.67
2018-02-24T04:01:16.175Z,-3.40
2018-02-24T04:03:42.113Z,-3.31
2018-02-24T04:06:08.052Z,-3.41
2018-02-24T04:08:33.999Z,-3.50
2018-02-24T04:10:59.934Z,-3.29
2018-02-24T04:13:25.889Z,-3.64
2018-02-24T04:15:51.833Z,-3.21
2018-02-24T04:18:17.766Z,-3.36
2018-02-24T04:20:43.702Z,-3.38
2018-02-24T04:23:09.648Z,-3.79
2018-02-24T04:25:35.583Z,-3.84
2018-02-24T04:28:01.510Z,-3.71
2018-02-24T04:30:27.448Z,-3.94
2018-02-24T04:32:53.396Z,-4.08
2018-02-24T04:35:19.322Z,-3.97
2018-02-24T04:37:45.258Z,-3.73
2018-02-24T04:40:11.194Z,-3.87
2018-02-24T04:42:37.136Z,-3.43
2018-02-24T04:45:03.136Z,-3.40
2018-02-24T04:47:29.076Z,-3.38
2018-02-24T04:49:55.003Z,-3.46
2018-02-24T04:52:20.941Z,-3.52
2018-02-24T04:54:46.882Z,-3.11
2018-02-24T04:57:12.840Z,-3.58
2018-02-24T04:59:38.820Z,-3.95
2018-02-24T05:02:04.766Z,-4.17
2018-02-24T05:04:30.712Z,-4.09
2018-02-24T05:06:56.654Z,-3.46
2018-02-24T05:09:22.605Z,-3.60
2018-02-24T05:11:48.548Z,-3.80
2018-02-24T05:14:14.498Z,-4.28
2018-02-24T05:16:40.439Z,-3.97
2018-02-24T05:19:06.403Z,-4.06
2018-02-24T05:21:32.350Z,-3.68
2018-02-24T05:23:58.298Z,-3.88
2018-02-24T05:26:24.238Z,-3.52
2018-02-24T05:28:50.158Z,-3.81
2018-02-24T05:31:16.109Z,-3.41
2018-02-24T05:33:42.046Z,-3.43
2018-02-24T05:36:07.971Z,-2.74
2018-02-24T05:38:33.923Z,-2.98
2018-02-24T05:40:59.866Z,-3.05
2018-02-24T05:43:25.791Z,-3.12
2018-02-24T05:45:51.762Z,-3.04
2018-02-24T05:48:17.719Z,-3.10
2018-02-24T05:50:44.047Z,-2.80
2018-02-24T05:53:10.034Z,-3.30
2018-02-24T05:55:36.007Z,-3.80
2018-02-24T05:58:01.950Z,-3.61
2018-02-24T06:00:27.902Z,-3.85
2018-02-24T06:02:53.878Z,-3.64
2018-02-24T06:05:19.826Z,-3.20
2018-02-24T06:07:45.767Z,-3.74
2018-02-24T06:10:11.738Z,-3.76
2018-02-24T06:12:37.719Z,-3.74
2018-02-24T06:15:03.674Z,-3.60
2018-02-24T06:17:29.633Z,-3.49
2018-02-24T06:19:55.572Z,-3.27
2018-02-24T06:22:21.503Z,-3.53
2018-02-24T06:24:47.444Z,-2.87
2018-02-24T06:27:13.385Z,-2.85
2018-02-24T06:29:39.350Z,-2.67
2018-02-24T06:32:05.290Z,-2.80
2018-02-24T06:34:31.259Z,-2.64
2018-02-24T06:36:57.207Z,-2.73
2018-02-24T06:39:23.159Z,-2.66
2018-02-24T06:41:49.109Z,-2.87
2018-02-24T06:44:15.069Z,-3.35
2018-02-24T06:46:41.019Z,-2.64
2018-02-24T06:49:06.975Z,-2.65
2018-02-24T06:51:32.915Z,-2.60
2018-02-24T06:53:58.876Z,-2.56
2018-02-24T06:56:24.816Z,-3.01
2018-02-24T06:58:50.755Z,-2.36
2018-02-24T07:01:16.685Z,-2.04
2018-02-24T07:03:42.621Z,-2.37
2018-02-24T07:06:08.565Z,-1.79
2018-02-24T07:08:34.506Z,-1.29
2018-02-24T07:11:00.434Z,-1.90
2018-02-24T07:13:26.366Z,-2.63
2018-02-24T07:15:52.315Z,-2.43
2018-02-24T07:18:18.250Z,-1.99
2018-02-24T07:20:44.209Z,-1.74
2018-02-24T07:23:10.145Z,-2.05
2018-02-24T07:25:36.096Z,-1.92
2018-02-24T07:28:02.037Z,-2.20
2018-02-24T07:30:27.998Z,-2.32
2018-02-24T07:32:53.989Z,-2.17
2018-02-24T07:35:19.935Z,-2.03
2018-02-24T07:37:45.859Z,-1.73
2018-02-24T07:40:11.834Z,-1.50
2018-02-24T07:42:37.791Z,-1.60
2018-02-24T07:45:03.752Z,-1.00
2018-02-24T07:47:29.679Z,-1.17
2018-02-24T07:49:55.649Z,-1.64
2018-02-24T07:52:21.598Z,-1.16
2018-02-24T07:54:47.529Z,-0.73
2018-02-24T07:57:13.460Z,-1.03
2018-02-24T07:59:39.487Z,-0.70
2018-02-24T08:02:05.434Z,-0.79
2018-02-24T08:04:31.385Z,-0.77
2018-02-24T08:06:57.319Z,-0.14
2018-02-24T08:09:23.270Z,-0.26
2018-02-24T08:11:49.210Z,-0.25
2018-02-24T08:14:15.175Z,-0.21
2018-02-24T08:16:41.103Z,0.25
2018-02-24T08:19:07.038Z,0.69
2018-02-24T08:21:32.979Z,0.64
2018-02-24T08:23:58.957Z,0.40
2018-02-24T08:26:24.933Z,0.44
2018-02-24T08:28:50.898Z,0.61
2018-02-24T08:31:16.838Z,0.46
2018-02-24T08:33:42.795Z,0.90
2018-02-24T08:36:08.768Z,0.73
2018-02-24T08:38:35.241Z,0.59
2018-02-24T08:41:01.175Z,1.03
2018-02-24T08:43:27.115Z,1.11
2018-02-24T08:45:54.125Z,1.44
2018-02-24T08:48:20.075Z,1.32
2018-02-24T08:50:46.008Z,1.52
2018-02-24T08:53:11.948Z,2.12
2018-02-24T08:55:37.919Z,2.27
2018-02-24T08:58:03.900Z,2.10
2018-02-24T09:00:29.862Z,2.09
2018-02-24T09:02:55.815Z,2.34
2018-02-24T09:05:21.754Z,2.56
2018-02-24T09:07:47.733Z,2.42
2018-02-24T09:10:13.681Z,2.59
2018-02-24T09:12:39.656Z,2.20
2018-02-24T09:15:05.608Z,2.15
2018-02-24T09:17:31.559Z,2.47
2018-02-24T09:19:57.511Z,2.42
2018-02-24T09:22:23.454Z,2.51
2018-02-24T09:24:49.404Z,2.63
2018-02-24T09:27:15.362Z,2.39
2018-02-24T09:29:41.297Z,2.68
2018-02-24T09:32:07.342Z,3.21
2018-02-24T09:34:33.277Z,3.38
2018-02-24T09:36:59.213Z,3.44
2018-02-24T09:39:25.206Z,3.74
2018-02-24T09:41:51.174Z,4.30
2018-02-24T09:44:17.147Z,2.69
2018-02-24T09:46:43.085Z,2.82
2018-02-24T09:49:09.028Z,2.87
2018-02-24T09:51:35.096Z,2.53
2018-02-24T09:54:01.075Z,2.93
2018-02-24T09:56:27.043Z,2.66
2018-02-24T09:58:52.979Z,2.33
2018-02-24T10:01:18.953Z,1.77
2018-02-24T10:03:44.892Z,1.61
2018-02-24T10:06:10.822Z,1.80
2018-02-24T10:08:36.766Z,1.37
2018-02-24T10:11:02.690Z,1.51
2018-02-24T10:13:28.658Z,1.60
2018-02-24T10:15:54.601Z,1.62
2018-02-24T10:18:20.606Z,1.76
2018-02-24T10:20:46.535Z,2.02
2018-02-24T10:23:12.488Z,2.25
2018-02-24T10:25:38.435Z,1.95
2018-02-24T10:28:04.381Z,1.83
2018-02-24T10:30:30.309Z,1.87
2018-02-24T10:32:56.244Z,1.76
2018-02-24T10:35:22.178Z,2.18
2018-02-24T10:37:48.124Z,2.39
2018-02-24T10:40:14.064Z,2.67
2018-02-24T10:42:40.028Z,2.38
2018-02-24T10:45:05.968Z,2.54
2018-02-24T10:47:31.912Z,2.24
2018-02-24T10:49:57.850Z,2.26
2018-02-24T10:52:23.827Z,2.38
2018-02-24T10:54:49.762Z,2.39
2018-02-24T10:57:15.720Z,2.27
2018-02-24T10:59:41.658Z,2.24
2018-02-24T11:02:07.620Z,2.55
2018-02-24T11:04:33.561Z,2.19
2018-02-24T11:06:59.508Z,2.25
2018-02-24T11:09:25.568Z,2.01
2018-02-24T11:11:51.542Z,1.90
2018-02-24T11:14:17.618Z,1.95
2018-02-24T11:16:43.582Z,2.14
2018-02-24T11:19:09.528Z,2.06
2018-02-24T11:21:35.467Z,2.03
2018-02-24T11:24:01.454Z,1.76
2018-02-24T11:26:27.482Z,1.72
2018-02-24T11:28:53.432Z,1.60
2018-02-24T11:31:19.419Z,1.84
2018-02-24T11:33:45.310Z,3.08
2018-02-24T11:36:11.254Z,2.83
2018-02-24T11:38:37.200Z,2.38
2018-02-24T11:41:03.140Z,2.62
2018-02-24T11:43:29.166Z,2.59
2018-02-24T11:45:55.118Z,2.69
2018-02-24T11:48:21.299Z,2.74
2018-02-24T11:50:47.266Z,2.58
2018-02-24T11:53:13.264Z,2.77
2018-02-24T11:55:39.177Z,2.78
2018-02-24T11:58:05.300Z,2.50
2018-02-24T12:00:31.239Z,2.37
2018-02-24T12:02:57.176Z,2.42
2018-02-24T12:05:23.139Z,2.58
2018-02-24T12:07:49.094Z,2.55
2018-02-24T12:10:15.120Z,2.57
2018-02-24T12:12:41.081Z,2.37
2018-02-24T12:15:07.023Z,2.69
2018-02-24T12:17:33.000Z,2.42
2018-02-24T12:19:58.938Z,2.03
2018-02-24T12:22:24.927Z,2.04
2018-02-24T12:24:50.876Z,1.97
2018-02-24T12:27:16.817Z,2.07
2018-02-24T12:29:42.799Z,2.19
2018-02-24T12:32:08.806Z,1.93
2018-02-24T12:34:34.767Z,2.08
2018-02-24T12:37:00.764Z,2.15
2018-02-24T12:39:26.786Z,2.50
2018-02-24T12:41:52.714Z,1.92
2018-02-24T12:44:18.655Z,1.59
2018-02-24T12:46:44.630Z,1.87
2018-02-24T12:49:10.570Z,1.75
2018-02-24T12:51:36.499Z,1.84
2018-02-24T12:54:02.452Z,2.17
2018-02-24T12:56:28.397Z,2.13
2018-02-24T12:58:54.394Z,1.85
2018-02-24T13:01:20.351Z,1.83
2018-02-24T13:03:46.303Z,1.78
2018-02-24T13:06:12.231Z,1.67
2018-02-24T13:08:38.155Z,1.99
2018-02-24T13:11:04.101Z,1.72
2018-02-24T13:13:30.434Z,1.84
2018-02-24T13:15:56.371Z,2.12
2018-02-24T13:18:22.320Z,2.08
2018-02-24T13:20:48.415Z,2.07
2018-02-24T13:23:14.369Z,2.25
2018-02-24T13:25:40.302Z,2.43
2018-02-24T13:28:06.268Z,2.17
2018-02-24T13:30:32.226Z,1.96
2018-02-24T13:32:58.169Z,2.10
2018-02-24T13:35:24.147Z,1.89
2018-02-24T13:37:50.095Z,2.14
2018-02-24T13:40:16.067Z,2.13
2018-02-24T13:42:42.025Z,2.06
2018-02-24T13:45:07.979Z,2.14
2018-02-24T13:47:33.955Z,2.11
2018-02-24T13:49:59.951Z,1.97
2018-02-24T13:52:25.941Z,1.90
2018-02-24T13:54:51.873Z,2.07
2018-02-24T13:57:17.825Z,2.38
2018-02-24T13:59:43.775Z,2.15
2018-02-24T14:02:09.740Z,2.53
2018-02-24T14:04:35.699Z,2.76
2018-02-24T14:07:01.681Z,1.83
2018-02-24T14:09:27.613Z,1.89
2018-02-24T14:11:53.578Z,2.10
2018-02-24T14:14:19.525Z,2.31
2018-02-24T14:16:45.469Z,2.13
2018-02-24T14:19:11.427Z,1.87
2018-02-24T14:21:37.389Z,1.88
2018-02-24T14:24:03.348Z,1.77
2018-02-24T14:26:29.311Z,1.27
2018-02-24T14:28:55.245Z,1.47
2018-02-24T14:31:21.205Z,1.87
2018-02-24T14:33:47.143Z,1.77
2018-02-24T14:36:13.084Z,1.61
2018-02-24T14:38:39.011Z,1.85
2018-02-24T14:41:04.942Z,2.00
2018-02-24T14:43:30.883Z,1.93
2018-02-24T14:45:56.837Z,1.95
2018-02-24T14:48:22.802Z,1.92
2018-02-24T14:50:48.738Z,1.69
2018-02-24T14:53:14.703Z,1.54
2018-02-24T14:55:40.646Z,1.76
2018-02-24T14:58:06.580Z,1.65
2018-02-24T15:00:32.550Z,1.38
2018-02-24T15:02:58.510Z,1.41
2018-02-24T15:05:24.537Z,1.31
2018-02-24T15:07:50.499Z,1.26
2018-02-24T15:10:16.435Z,1.39
2018-02-24T15:12:42.377Z,1.47
2018-02-24T15:15:08.341Z,1.49
2018-02-24T15:17:34.306Z,1.42
2018-02-24T15:20:00.238Z,1.29
2018-02-24T15:22:26.211Z,1.52
2018-02-24T15:24:52.155Z,1.30
2018-02-24T15:27:18.108Z,1.29
2018-02-24T15:29:44.071Z,1.49
2018-02-24T15:32:10.034Z,1.27
2018-02-24T15:34:35.976Z,1.24
2018-02-24T15:37:01.955Z,1.34
2018-02-24T15:39:27.892Z,1.29
2018-02-24T15:41:53.840Z,1.50
2018-02-24T15:44:19.791Z,0.86
2018-02-24T15:46:45.759Z,0.81
2018-02-24T15:49:11.699Z,1.05
2018-02-24T15:51:37.658Z,0.91
2018-02-24T15:54:03.668Z,1.20
2018-02-24T15:56:29.604Z,0.94
2018-02-24T15:58:55.546Z,1.08
2018-02-24T16:01:21.510Z,1.06
2018-02-24T16:03:47.468Z,0.99
2018-02-24T16:06:13.440Z,0.78
2018-02-24T16:08:39.382Z,0.79
2018-02-24T16:11:05.334Z,1.17
2018-02-24T16:13:31.268Z,0.93
2018-02-24T16:15:57.218Z,1.58
2018-02-24T16:18:23.146Z,1.17
2018-02-24T16:20:49.097Z,1.60
2018-02-24T16:23:15.078Z,1.15
2018-02-24T16:25:41.014Z,0.88
2018-02-24T16:28:06.953Z,1.46
2018-02-24T16:30:32.888Z,1.38
2018-02-24T16:32:58.847Z,1.16
2018-02-24T16:35:24.981Z,1.28
2018-02-24T16:37:50.932Z,1.25
2018-02-24T16:40:16.872Z,1.25
2018-02-24T16:42:42.860Z,1.57
2018-02-24T16:45:08.782Z,1.33
2018-02-24T16:47:34.720Z,1.11
2018-02-24T16:50:00.704Z,1.04
2018-02-24T16:52:26.660Z,0.97
2018-02-24T16:54:52.584Z,1.36
2018-02-24T16:57:18.524Z,1.10
2018-02-24T16:59:44.464Z,1.03
2018-02-24T17:02:10.426Z,0.78
2018-02-24T17:04:36.410Z,0.74
2018-02-24T17:07:02.386Z,0.75
2018-02-24T17:09:28.335Z,0.55
2018-02-24T17:11:54.300Z,0.80
2018-02-24T17:14:20.244Z,0.51
2018-02-24T17:16:46.216Z,0.62
2018-02-24T17:19:12.152Z,0.61
2018-02-24T17:21:38.108Z,0.40
2018-02-24T17:24:04.046Z,0.33
2018-02-24T17:26:29.986Z,0.80
2018-02-24T17:28:55.931Z,0.70
2018-02-24T17:31:21.874Z,0.66
2018-02-24T17:33:47.822Z,0.97
2018-02-24T17:36:13.780Z,0.84
2018-02-24T17:38:39.720Z,0.66
2018-02-24T17:41:05.686Z,0.80
2018-02-24T17:43:31.638Z,1.09
2018-02-24T17:45:57.586Z,0.99
2018-02-24T17:48:23.542Z,0.77
2018-02-24T17:50:49.504Z,1.01
2018-02-24T17:53:15.450Z,0.65
2018-02-24T17:55:41.392Z,0.64
2018-02-24T17:58:07.324Z,0.81
2018-02-24T18:00:33.265Z,0.76
2018-02-24T18:02:59.209Z,0.88
2018-02-24T18:05:25.153Z,0.44
2018-02-24T18:07:51.124Z,0.54
2018-02-24T18:10:17.063Z,0.52
2018-02-24T18:12:43.033Z,0.42
2018-02-24T18:15:08.976Z,0.78
2018-02-24T18:17:34.935Z,0.56
2018-02-24T18:20:00.874Z,-0.15
2018-02-24T18:22:26.851Z,0.25
2018-02-24T18:24:52.780Z,0.01
2018-02-24T18:27:18.733Z,0.09
2018-02-24T18:29:44.671Z,0.20
2018-02-24T18:32:10.615Z,0.27
2018-02-24T18:34:36.572Z,-0.03
2018-02-24T18:37:02.531Z,0.10
2018-02-24T18:39:28.499Z,0.19
2018-02-24T18:41:54.462Z,0.23
2018-02-24T18:44:20.404Z,0.35
2018-02-24T18:46:46.574Z,0.17
2018-02-24T18:49:12.510Z,0.38
2018-02-24T18:51:38.492Z,-0.43
2018-02-24T18:54:04.421Z,0.05
2018-02-24T18:56:30.403Z,0.00
2018-02-24T18:58:56.348Z,-0.33
2018-02-24T19:01:22.329Z,-0.25
2018-02-24T19:03:48.265Z,0.05
2018-02-24T19:06:14.238Z,-0.67
2018-02-24T19:08:40.201Z,-0.11
2018-02-24T19:11:06.171Z,-0.06
2018-02-24T19:13:32.111Z,-0.28
2018-02-24T19:15:58.045Z,-0.43
2018-02-24T19:18:24.003Z,-0.42
2018-02-24T19:20:49.947Z,-0.52
2018-02-24T19:23:15.893Z,-0.40
2018-02-24T19:25:41.845Z,-0.85
2018-02-24T19:28:07.803Z,-0.09
2018-02-24T19:30:33.753Z,-0.55
2018-02-24T19:32:59.727Z,-0.40
2018-02-24T19:35:25.673Z,-0.36
2018-02-24T19:37:51.640Z,-0.45
2018-02-24T19:40:17.588Z,-0.48
2018-02-24T19:42:43.523Z,-0.23
2018-02-24T19:45:09.495Z,-0.23
2018-02-24T19:47:35.459Z,-0.53
2018-02-24T19:50:01.405Z,-0.46
2018-02-24T19:52:27.355Z,-0.47
2018-02-24T19:54:53.307Z,-0.26
2018-02-24T19:57:19.282Z,-0.41
2018-02-24T19:59:45.227Z,-0.69
2018-02-24T20:02:11.163Z,-0.39
2018-02-24T20:04:37.117Z,-0.52
2018-02-24T20:07:03.071Z,-0.68
2018-02-24T20:09:29.035Z,-0.68
2018-02-24T20:11:54.986Z,-0.52
2018-02-24T20:14:20.937Z,-0.53
2018-02-24T20:16:46.867Z,-0.19
2018-02-24T20:19:12.795Z,-0.23
2018-02-24T20:21:38.731Z,-0.65
2018-02-24T20:24:04.688Z,-0.33
2018-02-24T20:26:30.665Z,-0.53
2018-02-24T20:28:56.608Z,-0.76
2018-02-24T20:31:22.547Z,-0.99
2018-02-24T20:33:48.485Z,-0.88
2018-02-24T20:36:14.424Z,-1.17
2018-02-24T20:38:40.367Z,-1.39
2018-02-24T20:41:06.390Z,-1.31
2018-02-24T20:43:32.320Z,-1.17
2018-02-24T20:45:58.281Z,-1.23
2018-02-24T20:48:24.225Z,-0.52
2018-02-24T20:50:50.171Z,-0.88
2018-02-24T20:53:16.152Z,-1.10
2018-02-24T20:55:42.087Z,-1.09
2018-02-24T20:58:08.016Z,-0.87
2018-02-24T21:00:33.965Z,-0.91
2018-02-24T21:05:32.217Z,-1.13
2018-02-24T21:07:58.153Z,-1.28
2018-02-24T21:10:24.086Z,-1.16
2018-02-24T21:12:50.048Z,-1.23
2018-02-24T21:15:15.990Z,-1.39
2018-02-24T21:17:41.940Z,-1.27
2018-02-24T21:20:07.898Z,-1.19
2018-02-24T21:22:33.831Z,-0.96
2018-02-24T21:24:59.765Z,-0.78
2018-02-24T21:27:25.766Z,-0.37
2018-02-24T21:29:51.671Z,-0.45
2018-02-24T21:32:17.621Z,-1.02
2018-02-24T21:34:43.583Z,-1.20
2018-02-24T21:37:09.531Z,-1.00
2018-02-24T21:39:35.482Z,-1.11
2018-02-24T21:42:01.419Z,-0.81
2018-02-24T21:44:27.396Z,-0.56
2018-02-24T21:46:53.330Z,-0.92
2018-02-24T21:49:19.345Z,-1.08
2018-02-24T21:51:45.274Z,-1.20
2018-02-24T21:54:11.221Z,-1.43
2018-02-24T21:56:37.159Z,-1.41
2018-02-24T21:59:03.103Z,-1.30
2018-02-24T22:01:29.046Z,-1.25
2018-02-24T22:03:55.011Z,-1.22
2018-02-24T22:06:20.974Z,-1.32
2018-02-24T22:08:46.918Z,-1.59
2018-02-24T22:11:12.873Z,-1.57
2018-02-24T22:13:38.850Z,-0.47
2018-02-24T22:16:04.803Z,-1.46
2018-02-24T22:18:30.842Z,-1.36
2018-02-24T22:20:56.809Z,-1.38
2018-02-24T22:23:22.788Z,-0.86
2018-02-24T22:25:48.748Z,-1.45
2018-02-24T22:28:14.751Z,-1.41
2018-02-24T22:30:40.737Z,-0.50
2018-02-24T22:33:06.685Z,-1.58
2018-02-24T22:35:32.750Z,-1.51
2018-02-24T22:37:58.745Z,-1.13
2018-02-24T22:40:24.766Z,-1.34
2018-02-24T22:42:50.740Z,-1.18
2018-02-24T22:45:16.711Z,-1.64
2018-02-24T22:47:42.681Z,-1.66
2018-02-24T22:50:08.652Z,-1.60
2018-02-24T22:52:34.619Z,-1.59
2018-02-24T22:55:00.583Z,-1.69
2018-02-24T22:57:26.590Z,-1.42
2018-02-24T22:59:52.578Z,-1.44
2018-02-24T23:02:18.577Z,-1.38
2018-02-24T23:04:44.535Z,-1.38
2018-02-24T23:07:10.491Z,-1.29
2018-02-24T23:09:36.439Z,-1.52
2018-02-24T23:12:02.473Z,-1.87
2018-02-24T23:14:28.496Z,-2.06
2018-02-24T23:16:54.448Z,-1.86
2018-02-24T23:19:20.449Z,-1.54
2018-02-24T23:21:46.491Z,-1.87
2018-02-24T23:24:12.439Z,-1.90
2018-02-24T23:26:38.379Z,-1.80
2018-02-24T23:29:04.354Z,-1.81
2018-02-24T23:31:30.307Z,-2.04
2018-02-24T23:33:56.290Z,-2.03
2018-02-24T23:36:22.222Z,-1.77
2018-02-24T23:38:48.191Z,-2.32
2018-02-24T23:41:14.127Z,-2.13
2018-02-24T23:43:40.103Z,-2.14
2018-02-24T23:46:06.040Z,-2.12
2018-02-24T23:48:32.041Z,-2.22
2018-02-24T23:50:58.033Z,-1.97
2018-02-24T23:53:23.975Z,-2.19
2018-02-24T23:55:49.900Z,-2.05
2018-02-24T23:58:15.877Z,-2.13
